Airfield :
LOGIN :

Register | Disclaimer

   EN    FR    IT 

 










Legend :    VFR   Marginal VFR   IFR   Intensive IFR   Very Intensive IFR
Visi :
Ceiling :
>= 8 km
>= 3000ft
5 to 8 km
1000 to 3000 ft
1500m to 5 km
500 to 1000 ft
800 to 1500m
200 to 500 ft
< 800m
< 200 ft
Symbols :   Thunderstorms  Fog  Heavy snow  Heavy precipitations  Wind > 20 kt
SIGMETs :     Misc.  Thunderstorms  Icing  Turbulence  Mountain Waves  Volcanic Ashes






- Airport Elevation : 26 ft
- IATA code : SYY


EGPO - Stornoway

CURRENT METAR :
  • 170650Z 18018KT 9999 VCSH FEW006 SCT011 BKN024 15/13 Q1003

EXPIRED METARs :
  • 170620Z 18015KT 9999 VCSH FEW007 BKN011 BKN016 14/13 Q1003
  • 170550Z 17012KT 9999 VCSH FEW007 SCT010 BKN016 15/13 Q1003
  • 170520Z 18016KT 9999 VCSH FEW007 SCT011 BKN017 14/14 Q1003
  • 170450Z 18015KT 9999 -RADZ FEW005 SCT012 BKN024 14/14 Q1003
  • 170420Z AUTO 17013KT 9999 BKN014/// BKN025/// OVC040/// 15/14 Q1003

TAF TAF EGPO
Valid from the 17 at 06:00 until the 17 at 15:00 UTC


170458Z 1706/1715 17016KT 9999 SCT014 BKN025
TEMPO 1706/1715 6000 -RADZ BKN009
PROB40
TEMPO 1706/1714 3000 RADZ BKN004
PROB40
TEMPO 1706/1712 19020G30KT
BECMG 1712/1715 20006KT
ATIS : +44 1851 707 444



MET'MAP, your aeronautical weather chart ! - Copyright ORBIFLY December 2007 - Disclaimer

ORBIFLY MET'MAP TEAM :

Programming & Development : Alexandra Zaïnal
Concept & original design : Baudouin d'Aumeries
Assistance for programming : Marc-Olivier Méhu
Technical & hardware support : Manuel Goepfert

Contact : metmap@orbifly.com




SOURCES & CREDITS :

   NOAA